sensor_id;sensor_type;location;lat;lon;timestamp;temperature;humidity
25154;DHT22;47555;51.038;6.280;2023-03-23T00:01:29;12.90;87.90
25154;DHT22;47555;51.038;6.280;2023-03-23T00:03:57;12.80;88.50
25154;DHT22;47555;51.038;6.280;2023-03-23T00:06:25;12.80;88.90
25154;DHT22;47555;51.038;6.280;2023-03-23T00:08:54;12.80;89.10
25154;DHT22;47555;51.038;6.280;2023-03-23T00:11:26;12.80;89.40
25154;DHT22;47555;51.038;6.280;2023-03-23T00:13:55;12.80;89.60
25154;DHT22;47555;51.038;6.280;2023-03-23T00:16:25;12.70;89.90
25154;DHT22;47555;51.038;6.280;2023-03-23T00:19:03;12.70;90.60
25154;DHT22;47555;51.038;6.280;2023-03-23T00:21:33;12.70;89.70
25154;DHT22;47555;51.038;6.280;2023-03-23T00:24:09;12.70;89.50
25154;DHT22;47555;51.038;6.280;2023-03-23T00:26:37;12.80;89.50
25154;DHT22;47555;51.038;6.280;2023-03-23T00:29:16;12.70;89.00
25154;DHT22;47555;51.038;6.280;2023-03-23T00:31:43;12.80;89.20
25154;DHT22;47555;51.038;6.280;2023-03-23T00:34:14;12.80;89.20
25154;DHT22;47555;51.038;6.280;2023-03-23T00:36:48;12.80;89.10
25154;DHT22;47555;51.038;6.280;2023-03-23T00:39:14;12.80;89.30
25154;DHT22;47555;51.038;6.280;2023-03-23T00:41:42;12.70;89.10
25154;DHT22;47555;51.038;6.280;2023-03-23T00:44:08;12.80;89.20
25154;DHT22;47555;51.038;6.280;2023-03-23T00:46:34;12.90;89.30
25154;DHT22;47555;51.038;6.280;2023-03-23T00:48:59;12.80;89.20
25154;DHT22;47555;51.038;6.280;2023-03-23T00:51:25;12.80;89.20
25154;DHT22;47555;51.038;6.280;2023-03-23T00:53:51;12.80;89.30
25154;DHT22;47555;51.038;6.280;2023-03-23T00:56:17;12.80;89.40
25154;DHT22;47555;51.038;6.280;2023-03-23T00:58:43;12.80;89.80
25154;DHT22;47555;51.038;6.280;2023-03-23T01:01:09;12.80;89.80
25154;DHT22;47555;51.038;6.280;2023-03-23T01:03:35;12.80;90.00
25154;DHT22;47555;51.038;6.280;2023-03-23T01:06:06;12.80;90.20
25154;DHT22;47555;51.038;6.280;2023-03-23T01:08:33;12.80;90.60
25154;DHT22;47555;51.038;6.280;2023-03-23T01:11:04;12.80;91.60
25154;DHT22;47555;51.038;6.280;2023-03-23T01:13:30;12.80;92.00
25154;DHT22;47555;51.038;6.280;2023-03-23T01:15:56;12.80;92.20
25154;DHT22;47555;51.038;6.280;2023-03-23T01:18:21;12.70;93.70
25154;DHT22;47555;51.038;6.280;2023-03-23T01:20:47;12.70;95.80
25154;DHT22;47555;51.038;6.280;2023-03-23T01:23:12;12.60;97.60
25154;DHT22;47555;51.038;6.280;2023-03-23T01:25:38;12.50;99.00
25154;DHT22;47555;51.038;6.280;2023-03-23T01:28:04;12.40;99.90
25154;DHT22;47555;51.038;6.280;2023-03-23T01:30:29;12.30;99.90
25154;DHT22;47555;51.038;6.280;2023-03-23T01:32:55;12.30;99.90
25154;DHT22;47555;51.038;6.280;2023-03-23T01:35:21;12.10;99.90
25154;DHT22;47555;51.038;6.280;2023-03-23T01:37:47;12.10;99.90
25154;DHT22;47555;51.038;6.280;2023-03-23T01:40:14;12.00;99.90
25154;DHT22;47555;51.038;6.280;2023-03-23T01:42:40;11.90;99.90
25154;DHT22;47555;51.038;6.280;2023-03-23T01:45:31;11.90;99.90
25154;DHT22;47555;51.038;6.280;2023-03-23T01:48:17;11.90;99.90
25154;DHT22;47555;51.038;6.280;2023-03-23T01:50:50;11.80;99.90
25154;DHT22;47555;51.038;6.280;2023-03-23T01:53:17;11.80;99.90
25154;DHT22;47555;51.038;6.280;2023-03-23T01:55:44;11.80;99.90
25154;DHT22;47555;51.038;6.280;2023-03-23T01:58:14;11.80;99.90
25154;DHT22;47555;51.038;6.280;2023-03-23T02:00:42;11.80;99.90
25154;DHT22;47555;51.038;6.280;2023-03-23T02:03:08;11.80;99.90
25154;DHT22;47555;51.038;6.280;2023-03-23T02:05:41;11.80;99.90
25154;DHT22;47555;51.038;6.280;2023-03-23T02:08:08;11.80;99.90
25154;DHT22;47555;51.038;6.280;2023-03-23T02:10:35;11.80;99.90
25154;DHT22;47555;51.038;6.280;2023-03-23T02:13:03;11.80;99.90
25154;DHT22;47555;51.038;6.280;2023-03-23T02:18:37;11.80;99.90
25154;DHT22;47555;51.038;6.280;2023-03-23T02:29:36;11.80;99.90
25154;DHT22;47555;51.038;6.280;2023-03-23T02:32:23;11.90;99.90
25154;DHT22;47555;51.038;6.280;2023-03-23T02:34:55;11.90;99.60
25154;DHT22;47555;51.038;6.280;2023-03-23T02:37:32;11.90;99.80
25154;DHT22;47555;51.038;6.280;2023-03-23T02:40:14;12.00;99.40
25154;DHT22;47555;51.038;6.280;2023-03-23T02:42:42;12.00;99.30
25154;DHT22;47555;51.038;6.280;2023-03-23T02:45:10;12.00;99.20
25154;DHT22;47555;51.038;6.280;2023-03-23T02:47:38;12.00;99.20
25154;DHT22;47555;51.038;6.280;2023-03-23T02:50:05;12.00;98.90
25154;DHT22;47555;51.038;6.280;2023-03-23T02:52:34;12.10;99.20
25154;DHT22;47555;51.038;6.280;2023-03-23T02:55:02;12.10;99.10
25154;DHT22;47555;51.038;6.280;2023-03-23T02:57:29;12.10;99.30
25154;DHT22;47555;51.038;6.280;2023-03-23T02:59:55;12.20;99.30
25154;DHT22;47555;51.038;6.280;2023-03-23T03:02:29;12.20;99.50
25154;DHT22;47555;51.038;6.280;2023-03-23T03:07:51;12.20;99.80
25154;DHT22;47555;51.038;6.280;2023-03-23T03:16:04;12.20;99.60
25154;DHT22;47555;51.038;6.280;2023-03-23T03:18:32;12.20;99.90
25154;DHT22;47555;51.038;6.280;2023-03-23T03:21:06;12.20;99.30
25154;DHT22;47555;51.038;6.280;2023-03-23T03:23:33;12.20;99.30
25154;DHT22;47555;51.038;6.280;2023-03-23T03:26:01;12.20;99.20
25154;DHT22;47555;51.038;6.280;2023-03-23T03:28:27;12.20;99.30
25154;DHT22;47555;51.038;6.280;2023-03-23T03:30:56;12.20;98.90
25154;DHT22;47555;51.038;6.280;2023-03-23T03:33:23;12.20;99.00
25154;DHT22;47555;51.038;6.280;2023-03-23T03:35:54;12.20;99.10
25154;DHT22;47555;51.038;6.280;2023-03-23T03:38:20;12.20;98.60
25154;DHT22;47555;51.038;6.280;2023-03-23T03:40:46;12.20;98.50
25154;DHT22;47555;51.038;6.280;2023-03-23T03:43:12;12.20;98.70
25154;DHT22;47555;51.038;6.280;2023-03-23T03:45:38;12.20;98.10
25154;DHT22;47555;51.038;6.280;2023-03-23T03:48:03;12.20;98.20
25154;DHT22;47555;51.038;6.280;2023-03-23T03:50:29;12.20;98.10
25154;DHT22;47555;51.038;6.280;2023-03-23T03:52:55;12.20;97.80
25154;DHT22;47555;51.038;6.280;2023-03-23T03:55:20;12.20;97.70
25154;DHT22;47555;51.038;6.280;2023-03-23T03:57:47;12.20;97.30
25154;DHT22;47555;51.038;6.280;2023-03-23T04:00:13;12.20;97.40
25154;DHT22;47555;51.038;6.280;2023-03-23T04:02:45;12.20;97.30
25154;DHT22;47555;51.038;6.280;2023-03-23T04:05:13;12.20;97.20
25154;DHT22;47555;51.038;6.280;2023-03-23T04:07:38;12.20;97.00
25154;DHT22;47555;51.038;6.280;2023-03-23T04:10:06;12.20;96.70
25154;DHT22;47555;51.038;6.280;2023-03-23T04:12:32;12.20;96.80
25154;DHT22;47555;51.038;6.280;2023-03-23T04:14:58;12.20;97.00
25154;DHT22;47555;51.038;6.280;2023-03-23T04:17:23;12.20;97.00
25154;DHT22;47555;51.038;6.280;2023-03-23T04:19:51;12.20;97.00
25154;DHT22;47555;51.038;6.280;2023-03-23T04:22:17;12.20;97.10
25154;DHT22;47555;51.038;6.280;2023-03-23T04:24:43;12.10;97.10
25154;DHT22;47555;51.038;6.280;2023-03-23T04:27:08;12.20;97.20
25154;DHT22;47555;51.038;6.280;2023-03-23T04:29:34;12.20;96.90
25154;DHT22;47555;51.038;6.280;2023-03-23T04:31:59;12.20;96.70
25154;DHT22;47555;51.038;6.280;2023-03-23T04:34:27;12.20;96.60
25154;DHT22;47555;51.038;6.280;2023-03-23T04:36:53;12.20;96.70
25154;DHT22;47555;51.038;6.280;2023-03-23T04:39:21;12.20;96.70
25154;DHT22;47555;51.038;6.280;2023-03-23T04:41:47;12.20;96.50
25154;DHT22;47555;51.038;6.280;2023-03-23T04:44:13;12.20;96.40
25154;DHT22;47555;51.038;6.280;2023-03-23T04:46:43;12.20;96.60
25154;DHT22;47555;51.038;6.280;2023-03-23T04:49:10;12.20;96.60
25154;DHT22;47555;51.038;6.280;2023-03-23T04:51:36;12.20;96.60
25154;DHT22;47555;51.038;6.280;2023-03-23T04:54:01;12.20;96.30
25154;DHT22;47555;51.038;6.280;2023-03-23T04:56:30;12.20;96.70
25154;DHT22;47555;51.038;6.280;2023-03-23T04:58:55;12.20;96.40
25154;DHT22;47555;51.038;6.280;2023-03-23T05:01:21;12.20;96.40
25154;DHT22;47555;51.038;6.280;2023-03-23T05:03:46;12.20;96.40
25154;DHT22;47555;51.038;6.280;2023-03-23T05:06:13;12.10;96.60
25154;DHT22;47555;51.038;6.280;2023-03-23T05:08:38;12.10;96.70
25154;DHT22;47555;51.038;6.280;2023-03-23T05:11:05;12.10;96.80
25154;DHT22;47555;51.038;6.280;2023-03-23T05:13:31;12.10;96.80
25154;DHT22;47555;51.038;6.280;2023-03-23T05:15:57;12.00;96.80
25154;DHT22;47555;51.038;6.280;2023-03-23T05:18:23;12.00;97.00
25154;DHT22;47555;51.038;6.280;2023-03-23T05:20:49;12.00;97.20
25154;DHT22;47555;51.038;6.280;2023-03-23T05:23:18;12.00;96.70
25154;DHT22;47555;51.038;6.280;2023-03-23T05:25:55;12.00;96.50
25154;DHT22;47555;51.038;6.280;2023-03-23T05:28:21;12.00;96.20
25154;DHT22;47555;51.038;6.280;2023-03-23T05:30:47;12.00;96.20
25154;DHT22;47555;51.038;6.280;2023-03-23T05:33:13;12.00;96.20
25154;DHT22;47555;51.038;6.280;2023-03-23T05:35:39;12.00;96.20
25154;DHT22;47555;51.038;6.280;2023-03-23T05:38:04;12.00;96.30
25154;DHT22;47555;51.038;6.280;2023-03-23T05:40:30;11.90;96.30
25154;DHT22;47555;51.038;6.280;2023-03-23T05:42:56;11.90;96.40
25154;DHT22;47555;51.038;6.280;2023-03-23T05:45:24;11.80;95.90
25154;DHT22;47555;51.038;6.280;2023-03-23T05:47:50;11.90;95.90
25154;DHT22;47555;51.038;6.280;2023-03-23T05:50:16;11.80;95.80
25154;DHT22;47555;51.038;6.280;2023-03-23T05:52:42;11.80;95.80
25154;DHT22;47555;51.038;6.280;2023-03-23T05:55:09;11.80;95.60
25154;DHT22;47555;51.038;6.280;2023-03-23T05:57:35;11.80;95.60
25154;DHT22;47555;51.038;6.280;2023-03-23T06:00:00;11.80;95.90
25154;DHT22;47555;51.038;6.280;2023-03-23T06:02:31;11.80;95.40
25154;DHT22;47555;51.038;6.280;2023-03-23T06:04:56;11.80;95.50
25154;DHT22;47555;51.038;6.280;2023-03-23T06:07:23;11.80;95.50
25154;DHT22;47555;51.038;6.280;2023-03-23T06:09:50;11.80;95.10
25154;DHT22;47555;51.038;6.280;2023-03-23T06:12:16;11.90;94.80
25154;DHT22;47555;51.038;6.280;2023-03-23T06:14:46;11.90;95.00
25154;DHT22;47555;51.038;6.280;2023-03-23T06:17:12;11.90;94.60
25154;DHT22;47555;51.038;6.280;2023-03-23T06:19:37;11.90;94.30
25154;DHT22;47555;51.038;6.280;2023-03-23T06:22:03;11.90;94.10
25154;DHT22;47555;51.038;6.280;2023-03-23T06:24:29;12.00;93.40
25154;DHT22;47555;51.038;6.280;2023-03-23T06:26:54;12.00;93.60
25154;DHT22;47555;51.038;6.280;2023-03-23T06:29:20;12.00;93.00
25154;DHT22;47555;51.038;6.280;2023-03-23T06:31:52;12.00;93.30
25154;DHT22;47555;51.038;6.280;2023-03-23T06:34:19;12.10;92.50
25154;DHT22;47555;51.038;6.280;2023-03-23T06:36:45;12.10;92.40
25154;DHT22;47555;51.038;6.280;2023-03-23T06:39:10;12.10;92.40
25154;DHT22;47555;51.038;6.280;2023-03-23T06:41:36;12.10;92.10
25154;DHT22;47555;51.038;6.280;2023-03-23T06:44:02;12.20;91.80
25154;DHT22;47555;51.038;6.280;2023-03-23T06:46:28;12.20;91.80
25154;DHT22;47555;51.038;6.280;2023-03-23T06:48:55;12.20;91.40
25154;DHT22;47555;51.038;6.280;2023-03-23T06:51:21;12.20;91.30
25154;DHT22;47555;51.038;6.280;2023-03-23T06:53:47;12.20;91.20
25154;DHT22;47555;51.038;6.280;2023-03-23T06:56:13;12.20;91.00
25154;DHT22;47555;51.038;6.280;2023-03-23T06:58:39;12.20;91.50
25154;DHT22;47555;51.038;6.280;2023-03-23T07:01:05;12.30;91.50
25154;DHT22;47555;51.038;6.280;2023-03-23T07:03:31;12.30;90.70
25154;DHT22;47555;51.038;6.280;2023-03-23T07:05:57;12.30;90.60
25154;DHT22;47555;51.038;6.280;2023-03-23T07:08:23;12.30;91.30
25154;DHT22;47555;51.038;6.280;2023-03-23T07:10:53;12.30;91.00
25154;DHT22;47555;51.038;6.280;2023-03-23T07:13:19;12.30;90.70
25154;DHT22;47555;51.038;6.280;2023-03-23T07:15:48;12.30;90.30
25154;DHT22;47555;51.038;6.280;2023-03-23T07:18:15;12.40;89.00
25154;DHT22;47555;51.038;6.280;2023-03-23T07:20:40;12.50;88.20
25154;DHT22;47555;51.038;6.280;2023-03-23T07:23:06;12.50;88.20
25154;DHT22;47555;51.038;6.280;2023-03-23T07:25:33;12.50;87.40
25154;DHT22;47555;51.038;6.280;2023-03-23T07:28:00;12.50;88.10
25154;DHT22;47555;51.038;6.280;2023-03-23T07:30:26;12.50;87.20
25154;DHT22;47555;51.038;6.280;2023-03-23T07:32:52;12.50;86.90
25154;DHT22;47555;51.038;6.280;2023-03-23T07:35:18;12.40;87.20
25154;DHT22;47555;51.038;6.280;2023-03-23T07:37:44;12.50;87.00
25154;DHT22;47555;51.038;6.280;2023-03-23T07:40:10;12.60;86.70
25154;DHT22;47555;51.038;6.280;2023-03-23T07:42:44;12.60;85.00
25154;DHT22;47555;51.038;6.280;2023-03-23T07:45:12;12.70;83.60
25154;DHT22;47555;51.038;6.280;2023-03-23T07:47:39;12.80;83.80
25154;DHT22;47555;51.038;6.280;2023-03-23T07:50:06;12.90;83.80
25154;DHT22;47555;51.038;6.280;2023-03-23T07:52:33;12.80;83.90
25154;DHT22;47555;51.038;6.280;2023-03-23T07:54:59;12.80;83.30
25154;DHT22;47555;51.038;6.280;2023-03-23T07:57:26;12.90;83.10
25154;DHT22;47555;51.038;6.280;2023-03-23T07:59:52;12.90;82.80
25154;DHT22;47555;51.038;6.280;2023-03-23T08:02:18;12.90;83.00
25154;DHT22;47555;51.038;6.280;2023-03-23T08:04:44;13.00;81.80
25154;DHT22;47555;51.038;6.280;2023-03-23T08:07:10;12.90;81.90
25154;DHT22;47555;51.038;6.280;2023-03-23T08:09:37;13.00;81.60
25154;DHT22;47555;51.038;6.280;2023-03-23T08:12:04;13.00;82.30
25154;DHT22;47555;51.038;6.280;2023-03-23T08:14:30;13.00;81.60
25154;DHT22;47555;51.038;6.280;2023-03-23T08:16:56;13.10;82.40
25154;DHT22;47555;51.038;6.280;2023-03-23T08:19:23;13.10;81.40
25154;DHT22;47555;51.038;6.280;2023-03-23T08:21:49;13.20;81.00
25154;DHT22;47555;51.038;6.280;2023-03-23T08:24:15;13.20;80.30
25154;DHT22;47555;51.038;6.280;2023-03-23T08:26:41;13.20;80.30
25154;DHT22;47555;51.038;6.280;2023-03-23T08:29:07;13.30;80.70
25154;DHT22;47555;51.038;6.280;2023-03-23T08:31:33;13.30;78.80
25154;DHT22;47555;51.038;6.280;2023-03-23T08:34:01;13.40;78.90
25154;DHT22;47555;51.038;6.280;2023-03-23T08:36:27;13.50;79.30
25154;DHT22;47555;51.038;6.280;2023-03-23T08:38:54;13.60;78.90
25154;DHT22;47555;51.038;6.280;2023-03-23T08:41:20;13.70;78.50
25154;DHT22;47555;51.038;6.280;2023-03-23T08:43:46;13.80;76.20
25154;DHT22;47555;51.038;6.280;2023-03-23T08:46:11;14.00;75.30
25154;DHT22;47555;51.038;6.280;2023-03-23T08:48:38;14.00;75.60
25154;DHT22;47555;51.038;6.280;2023-03-23T08:51:05;14.00;74.40
25154;DHT22;47555;51.038;6.280;2023-03-23T08:53:31;14.00;74.80
25154;DHT22;47555;51.038;6.280;2023-03-23T08:56:06;14.00;75.50
25154;DHT22;47555;51.038;6.280;2023-03-23T08:58:34;13.90;75.10
25154;DHT22;47555;51.038;6.280;2023-03-23T09:00:59;13.90;75.90
25154;DHT22;47555;51.038;6.280;2023-03-23T09:03:25;13.90;75.30
25154;DHT22;47555;51.038;6.280;2023-03-23T09:05:51;13.80;76.10
25154;DHT22;47555;51.038;6.280;2023-03-23T09:08:16;13.80;77.10
25154;DHT22;47555;51.038;6.280;2023-03-23T09:10:43;13.70;76.10
25154;DHT22;47555;51.038;6.280;2023-03-23T09:13:08;13.60;77.40
25154;DHT22;47555;51.038;6.280;2023-03-23T09:15:34;13.50;76.90
25154;DHT22;47555;51.038;6.280;2023-03-23T09:17:59;13.50;77.60
25154;DHT22;47555;51.038;6.280;2023-03-23T09:20:30;13.40;78.20
25154;DHT22;47555;51.038;6.280;2023-03-23T09:22:56;13.50;79.10
25154;DHT22;47555;51.038;6.280;2023-03-23T09:25:25;13.30;79.60
25154;DHT22;47555;51.038;6.280;2023-03-23T09:27:54;13.30;79.40
25154;DHT22;47555;51.038;6.280;2023-03-23T09:30:29;13.30;80.00
25154;DHT22;47555;51.038;6.280;2023-03-23T09:32:55;13.30;79.60
25154;DHT22;47555;51.038;6.280;2023-03-23T09:35:22;13.30;80.00
25154;DHT22;47555;51.038;6.280;2023-03-23T09:37:49;13.40;79.80
25154;DHT22;47555;51.038;6.280;2023-03-23T09:40:22;13.40;79.40
25154;DHT22;47555;51.038;6.280;2023-03-23T09:46:07;13.60;79.30
25154;DHT22;47555;51.038;6.280;2023-03-23T09:48:53;13.60;80.00
25154;DHT22;47555;51.038;6.280;2023-03-23T09:54:20;13.50;82.50
25154;DHT22;47555;51.038;6.280;2023-03-23T09:56:46;13.40;83.30
25154;DHT22;47555;51.038;6.280;2023-03-23T10:01:50;13.20;86.40
25154;DHT22;47555;51.038;6.280;2023-03-23T10:04:42;13.10;86.80
25154;DHT22;47555;51.038;6.280;2023-03-23T10:07:17;12.80;88.60
25154;DHT22;47555;51.038;6.280;2023-03-23T10:09:48;12.50;91.00
25154;DHT22;47555;51.038;6.280;2023-03-23T10:12:29;12.30;93.90
25154;DHT22;47555;51.038;6.280;2023-03-23T10:18:15;11.80;97.30
25154;DHT22;47555;51.038;6.280;2023-03-23T10:20:43;11.70;99.90
25154;DHT22;47555;51.038;6.280;2023-03-23T10:23:39;11.60;99.90
25154;DHT22;47555;51.038;6.280;2023-03-23T10:28:52;11.40;99.90
25154;DHT22;47555;51.038;6.280;2023-03-23T10:31:24;11.30;99.90
25154;DHT22;47555;51.038;6.280;2023-03-23T10:33:52;11.30;99.90
25154;DHT22;47555;51.038;6.280;2023-03-23T10:36:27;11.30;99.90
25154;DHT22;47555;51.038;6.280;2023-03-23T10:38:59;11.20;99.90
25154;DHT22;47555;51.038;6.280;2023-03-23T10:41:26;11.20;99.90
25154;DHT22;47555;51.038;6.280;2023-03-23T10:43:51;11.10;99.90
25154;DHT22;47555;51.038;6.280;2023-03-23T10:46:51;11.10;99.90
25154;DHT22;47555;51.038;6.280;2023-03-23T10:50:03;11.00;99.90
25154;DHT22;47555;51.038;6.280;2023-03-23T10:52:38;10.90;99.90
25154;DHT22;47555;51.038;6.280;2023-03-23T10:55:09;10.80;99.90
25154;DHT22;47555;51.038;6.280;2023-03-23T10:57:37;10.80;99.90
25154;DHT22;47555;51.038;6.280;2023-03-23T11:00:21;10.80;99.90
25154;DHT22;47555;51.038;6.280;2023-03-23T11:05:26;10.90;99.90
25154;DHT22;47555;51.038;6.280;2023-03-23T11:07:55;10.90;99.90
25154;DHT22;47555;51.038;6.280;2023-03-23T11:10:38;11.00;99.90
25154;DHT22;47555;51.038;6.280;2023-03-23T11:13:05;11.20;99.90
25154;DHT22;47555;51.038;6.280;2023-03-23T11:15:40;11.30;99.90
25154;DHT22;47555;51.038;6.280;2023-03-23T11:18:10;11.50;99.90
25154;DHT22;47555;51.038;6.280;2023-03-23T11:20:40;11.50;99.90
25154;DHT22;47555;51.038;6.280;2023-03-23T11:25:56;11.60;99.90
25154;DHT22;47555;51.038;6.280;2023-03-23T11:28:27;11.60;99.90
25154;DHT22;47555;51.038;6.280;2023-03-23T11:30:54;11.60;99.90
25154;DHT22;47555;51.038;6.280;2023-03-23T11:33:21;11.60;99.90
25154;DHT22;47555;51.038;6.280;2023-03-23T11:35:52;11.70;99.90
25154;DHT22;47555;51.038;6.280;2023-03-23T11:38:20;11.80;99.90
25154;DHT22;47555;51.038;6.280;2023-03-23T11:40:51;11.80;99.90
25154;DHT22;47555;51.038;6.280;2023-03-23T11:43:21;11.90;99.90
25154;DHT22;47555;51.038;6.280;2023-03-23T11:48:43;12.30;99.90
25154;DHT22;47555;51.038;6.280;2023-03-23T11:51:28;12.40;99.90
25154;DHT22;47555;51.038;6.280;2023-03-23T11:56:51;12.60;99.90
25154;DHT22;47555;51.038;6.280;2023-03-23T11:59:26;12.70;99.90
25154;DHT22;47555;51.038;6.280;2023-03-23T12:02:32;12.70;99.90
25154;DHT22;47555;51.038;6.280;2023-03-23T12:11:03;12.50;99.90
25154;DHT22;47555;51.038;6.280;2023-03-23T12:19:42;12.60;99.90
25154;DHT22;47555;51.038;6.280;2023-03-23T12:25:17;13.40;99.90
25154;DHT22;47555;51.038;6.280;2023-03-23T12:30:51;13.80;99.90
25154;DHT22;47555;51.038;6.280;2023-03-23T12:36:23;13.90;99.90
25154;DHT22;47555;51.038;6.280;2023-03-23T12:39:08;13.80;99.90
25154;DHT22;47555;51.038;6.280;2023-03-23T12:41:51;13.70;99.90
25154;DHT22;47555;51.038;6.280;2023-03-23T12:44:26;13.60;99.90
25154;DHT22;47555;51.038;6.280;2023-03-23T12:47:09;13.40;99.90
25154;DHT22;47555;51.038;6.280;2023-03-23T12:49:42;13.30;99.90
25154;DHT22;47555;51.038;6.280;2023-03-23T12:55:09;13.20;99.90
25154;DHT22;47555;51.038;6.280;2023-03-23T13:00:29;13.10;99.90
25154;DHT22;47555;51.038;6.280;2023-03-23T13:03:05;13.00;99.90
25154;DHT22;47555;51.038;6.280;2023-03-23T13:05:43;12.90;99.90
25154;DHT22;47555;51.038;6.280;2023-03-23T13:08:17;12.90;99.90
25154;DHT22;47555;51.038;6.280;2023-03-23T13:10:49;13.00;99.90
25154;DHT22;47555;51.038;6.280;2023-03-23T13:13:21;13.30;99.90
25154;DHT22;47555;51.038;6.280;2023-03-23T13:16:07;13.50;99.90
25154;DHT22;47555;51.038;6.280;2023-03-23T13:22:06;13.50;99.90
25154;DHT22;47555;51.038;6.280;2023-03-23T13:24:37;13.50;99.90
25154;DHT22;47555;51.038;6.280;2023-03-23T13:27:05;13.60;99.90
25154;DHT22;47555;51.038;6.280;2023-03-23T13:29:33;13.40;99.90
25154;DHT22;47555;51.038;6.280;2023-03-23T13:32:11;13.40;99.90
25154;DHT22;47555;51.038;6.280;2023-03-23T13:34:39;13.50;99.90
25154;DHT22;47555;51.038;6.280;2023-03-23T13:42:55;13.30;99.90
25154;DHT22;47555;51.038;6.280;2023-03-23T13:46:06;13.20;99.90
25154;DHT22;47555;51.038;6.280;2023-03-23T13:50:57;13.30;99.90
25154;DHT22;47555;51.038;6.280;2023-03-23T13:56:04;13.40;99.90
25154;DHT22;47555;51.038;6.280;2023-03-23T13:58:30;13.50;99.90
25154;DHT22;47555;51.038;6.280;2023-03-23T14:01:12;13.50;99.90
25154;DHT22;47555;51.038;6.280;2023-03-23T14:03:43;13.60;99.90
25154;DHT22;47555;51.038;6.280;2023-03-23T14:06:14;13.60;99.90
25154;DHT22;47555;51.038;6.280;2023-03-23T14:08:43;13.60;99.90
25154;DHT22;47555;51.038;6.280;2023-03-23T14:11:28;13.70;99.90
25154;DHT22;47555;51.038;6.280;2023-03-23T14:14:05;13.80;99.90
25154;DHT22;47555;51.038;6.280;2023-03-23T14:16:39;13.80;97.70
25154;DHT22;47555;51.038;6.280;2023-03-23T14:21:42;13.80;99.50
25154;DHT22;47555;51.038;6.280;2023-03-23T14:24:22;13.80;99.90
25154;DHT22;47555;51.038;6.280;2023-03-23T14:26:49;13.80;99.90
25154;DHT22;47555;51.038;6.280;2023-03-23T14:29:18;13.70;99.90
25154;DHT22;47555;51.038;6.280;2023-03-23T14:31:44;13.60;99.90
25154;DHT22;47555;51.038;6.280;2023-03-23T14:34:15;13.50;99.90
25154;DHT22;47555;51.038;6.280;2023-03-23T14:36:42;13.50;99.90
25154;DHT22;47555;51.038;6.280;2023-03-23T14:39:19;13.40;99.90
25154;DHT22;47555;51.038;6.280;2023-03-23T14:41:46;13.30;99.90
25154;DHT22;47555;51.038;6.280;2023-03-23T14:44:16;13.30;99.90
25154;DHT22;47555;51.038;6.280;2023-03-23T14:46:43;13.40;99.90
25154;DHT22;47555;51.038;6.280;2023-03-23T14:49:13;13.60;99.90
25154;DHT22;47555;51.038;6.280;2023-03-23T14:51:51;13.80;99.90
25154;DHT22;47555;51.038;6.280;2023-03-23T14:54:26;14.00;99.90
25154;DHT22;47555;51.038;6.280;2023-03-23T14:56:53;14.10;99.90
25154;DHT22;47555;51.038;6.280;2023-03-23T14:59:19;14.30;99.90
25154;DHT22;47555;51.038;6.280;2023-03-23T15:01:47;14.40;97.90
25154;DHT22;47555;51.038;6.280;2023-03-23T15:04:19;14.60;95.10
25154;DHT22;47555;51.038;6.280;2023-03-23T15:06:49;14.60;94.40
25154;DHT22;47555;51.038;6.280;2023-03-23T15:09:19;14.70;94.50
25154;DHT22;47555;51.038;6.280;2023-03-23T15:11:55;14.80;95.60
25154;DHT22;47555;51.038;6.280;2023-03-23T15:14:25;14.90;95.30
25154;DHT22;47555;51.038;6.280;2023-03-23T15:16:53;15.00;93.90
25154;DHT22;47555;51.038;6.280;2023-03-23T15:19:31;15.10;93.10
25154;DHT22;47555;51.038;6.280;2023-03-23T15:22:13;15.20;93.60
25154;DHT22;47555;51.038;6.280;2023-03-23T15:24:40;15.40;90.50
25154;DHT22;47555;51.038;6.280;2023-03-23T15:29:46;15.40;87.70
25154;DHT22;47555;51.038;6.280;2023-03-23T15:32:12;15.30;86.90
25154;DHT22;47555;51.038;6.280;2023-03-23T15:34:37;15.20;85.00
25154;DHT22;47555;51.038;6.280;2023-03-23T15:37:13;15.20;85.10
25154;DHT22;47555;51.038;6.280;2023-03-23T15:39:42;15.20;85.60
25154;DHT22;47555;51.038;6.280;2023-03-23T15:50:16;15.20;80.40
25154;DHT22;47555;51.038;6.280;2023-03-23T15:52:42;15.30;81.40
25154;DHT22;47555;51.038;6.280;2023-03-23T15:55:22;15.30;79.10
25154;DHT22;47555;51.038;6.280;2023-03-23T15:57:48;15.40;77.90
25154;DHT22;47555;51.038;6.280;2023-03-23T16:00:15;15.40;78.00
25154;DHT22;47555;51.038;6.280;2023-03-23T16:02:41;15.40;73.20
25154;DHT22;47555;51.038;6.280;2023-03-23T16:05:10;15.30;71.00
25154;DHT22;47555;51.038;6.280;2023-03-23T16:07:36;15.30;73.40
25154;DHT22;47555;51.038;6.280;2023-03-23T16:10:03;15.20;69.60
25154;DHT22;47555;51.038;6.280;2023-03-23T16:12:28;15.20;72.30
25154;DHT22;47555;51.038;6.280;2023-03-23T16:14:54;15.10;70.30
25154;DHT22;47555;51.038;6.280;2023-03-23T16:17:19;15.00;72.30
25154;DHT22;47555;51.038;6.280;2023-03-23T16:19:46;15.00;73.80
25154;DHT22;47555;51.038;6.280;2023-03-23T16:22:12;15.00;72.60
25154;DHT22;47555;51.038;6.280;2023-03-23T16:24:37;14.90;73.90
25154;DHT22;47555;51.038;6.280;2023-03-23T16:27:03;14.80;73.80
25154;DHT22;47555;51.038;6.280;2023-03-23T16:29:29;14.70;73.50
25154;DHT22;47555;51.038;6.280;2023-03-23T16:31:55;14.70;71.70
25154;DHT22;47555;51.038;6.280;2023-03-23T16:34:20;14.60;71.30
25154;DHT22;47555;51.038;6.280;2023-03-23T16:36:46;14.60;71.00
25154;DHT22;47555;51.038;6.280;2023-03-23T16:39:11;14.50;71.90
25154;DHT22;47555;51.038;6.280;2023-03-23T16:41:37;14.60;72.00
25154;DHT22;47555;51.038;6.280;2023-03-23T16:44:02;14.30;70.60
25154;DHT22;47555;51.038;6.280;2023-03-23T16:46:28;14.50;71.90
25154;DHT22;47555;51.038;6.280;2023-03-23T16:48:55;14.60;71.30
25154;DHT22;47555;51.038;6.280;2023-03-23T16:51:20;14.50;70.60
25154;DHT22;47555;51.038;6.280;2023-03-23T16:53:46;14.50;71.10
25154;DHT22;47555;51.038;6.280;2023-03-23T16:56:11;14.50;72.30
25154;DHT22;47555;51.038;6.280;2023-03-23T16:58:37;14.50;72.40
25154;DHT22;47555;51.038;6.280;2023-03-23T17:01:03;14.40;70.60
25154;DHT22;47555;51.038;6.280;2023-03-23T17:03:32;14.40;72.10
25154;DHT22;47555;51.038;6.280;2023-03-23T17:05:59;14.30;72.60
25154;DHT22;47555;51.038;6.280;2023-03-23T17:08:26;14.30;71.70
25154;DHT22;47555;51.038;6.280;2023-03-23T17:10:51;14.20;72.00
25154;DHT22;47555;51.038;6.280;2023-03-23T17:13:17;14.20;72.60
25154;DHT22;47555;51.038;6.280;2023-03-23T17:15:44;14.20;71.80
25154;DHT22;47555;51.038;6.280;2023-03-23T17:18:10;14.20;72.10
25154;DHT22;47555;51.038;6.280;2023-03-23T17:20:36;14.30;71.30
25154;DHT22;47555;51.038;6.280;2023-03-23T17:23:02;14.10;71.10